sensor_id;sensor_type;location;lat;lon;timestamp;P1;durP1;ratioP1;P2;durP2;ratioP2
77168;SDS011;66281;45.114;20.730;2022-12-29T00:09:37;17.27;;;7.68;;
77168;SDS011;66281;45.114;20.730;2022-12-29T00:19:38;11.83;;;6.23;;
77168;SDS011;66281;45.114;20.730;2022-12-29T00:29:39;9.63;;;5.32;;
77168;SDS011;66281;45.114;20.730;2022-12-29T00:39:39;11.40;;;5.73;;
77168;SDS011;66281;45.114;20.730;2022-12-29T00:49:40;11.67;;;6.23;;
77168;SDS011;66281;45.114;20.730;2022-12-29T00:59:41;11.05;;;6.43;;
77168;SDS011;66281;45.114;20.730;2022-12-29T01:09:42;13.57;;;7.38;;
77168;SDS011;66281;45.114;20.730;2022-12-29T01:19:43;10.90;;;6.50;;
77168;SDS011;66281;45.114;20.730;2022-12-29T01:29:43;13.85;;;7.20;;
77168;SDS011;66281;45.114;20.730;2022-12-29T01:39:44;13.23;;;6.93;;
77168;SDS011;66281;45.114;20.730;2022-12-29T01:49:44;13.52;;;6.80;;
77168;SDS011;66281;45.114;20.730;2022-12-29T02:00:18;12.32;;;6.22;;
77168;SDS011;66281;45.114;20.730;2022-12-29T02:10:15;13.00;;;6.80;;
77168;SDS011;66281;45.114;20.730;2022-12-29T02:30:33;12.80;;;6.78;;
77168;SDS011;66281;45.114;20.730;2022-12-29T02:40:41;14.10;;;7.37;;
77168;SDS011;66281;45.114;20.730;2022-12-29T02:51:07;13.47;;;7.17;;
77168;SDS011;66281;45.114;20.730;2022-12-29T03:01:26;12.50;;;7.78;;
77168;SDS011;66281;45.114;20.730;2022-12-29T03:11:34;14.93;;;7.73;;
77168;SDS011;66281;45.114;20.730;2022-12-29T03:21:43;17.43;;;7.93;;
77168;SDS011;66281;45.114;20.730;2022-12-29T03:31:48;10.90;;;6.75;;
77168;SDS011;66281;45.114;20.730;2022-12-29T03:41:50;16.43;;;7.00;;
77168;SDS011;66281;45.114;20.730;2022-12-29T03:51:55;14.57;;;9.07;;
77168;SDS011;66281;45.114;20.730;2022-12-29T04:01:57;11.13;;;6.23;;
77168;SDS011;66281;45.114;20.730;2022-12-29T04:11:58;13.85;;;7.53;;
77168;SDS011;66281;45.114;20.730;2022-12-29T04:21:59;17.80;;;9.00;;
77168;SDS011;66281;45.114;20.730;2022-12-29T04:32:00;12.33;;;7.77;;
77168;SDS011;66281;45.114;20.730;2022-12-29T04:42:02;12.83;;;8.40;;
77168;SDS011;66281;45.114;20.730;2022-12-29T04:52:03;13.70;;;8.20;;
77168;SDS011;66281;45.114;20.730;2022-12-29T05:02:04;13.00;;;6.50;;
77168;SDS011;66281;45.114;20.730;2022-12-29T05:12:08;6.97;;;4.37;;
77168;SDS011;66281;45.114;20.730;2022-12-29T05:22:13;16.17;;;8.23;;
77168;SDS011;66281;45.114;20.730;2022-12-29T05:32:14;15.52;;;7.28;;
77168;SDS011;66281;45.114;20.730;2022-12-29T05:42:16;20.20;;;10.37;;
77168;SDS011;66281;45.114;20.730;2022-12-29T05:52:51;15.67;;;8.50;;
77168;SDS011;66281;45.114;20.730;2022-12-29T06:02:53;13.03;;;7.37;;
77168;SDS011;66281;45.114;20.730;2022-12-29T06:12:54;14.95;;;7.85;;
77168;SDS011;66281;45.114;20.730;2022-12-29T06:22:55;20.40;;;10.63;;
77168;SDS011;66281;45.114;20.730;2022-12-29T06:32:57;12.93;;;7.93;;
77168;SDS011;66281;45.114;20.730;2022-12-29T06:42:58;14.00;;;8.43;;
77168;SDS011;66281;45.114;20.730;2022-12-29T06:53:19;13.97;;;7.23;;
77168;SDS011;66281;45.114;20.730;2022-12-29T07:03:20;19.92;;;11.55;;
77168;SDS011;66281;45.114;20.730;2022-12-29T07:13:20;14.68;;;8.85;;
77168;SDS011;66281;45.114;20.730;2022-12-29T07:23:21;18.93;;;10.80;;
77168;SDS011;66281;45.114;20.730;2022-12-29T07:33:21;59.05;;;22.70;;
77168;SDS011;66281;45.114;20.730;2022-12-29T07:43:22;35.90;;;20.25;;
77168;SDS011;66281;45.114;20.730;2022-12-29T07:53:42;16.97;;;10.93;;
77168;SDS011;66281;45.114;20.730;2022-12-29T08:03:42;17.17;;;10.13;;
77168;SDS011;66281;45.114;20.730;2022-12-29T08:13:43;13.60;;;9.30;;
77168;SDS011;66281;45.114;20.730;2022-12-29T08:23:43;21.85;;;12.70;;
77168;SDS011;66281;45.114;20.730;2022-12-29T08:33:44;15.82;;;10.85;;
77168;SDS011;66281;45.114;20.730;2022-12-29T08:43:48;16.48;;;9.98;;
77168;SDS011;66281;45.114;20.730;2022-12-29T08:53:48;15.47;;;9.63;;
77168;SDS011;66281;45.114;20.730;2022-12-29T09:03:49;21.27;;;12.48;;
77168;SDS011;66281;45.114;20.730;2022-12-29T09:13:50;19.52;;;11.15;;
77168;SDS011;66281;45.114;20.730;2022-12-29T09:23:51;20.93;;;12.20;;
77168;SDS011;66281;45.114;20.730;2022-12-29T09:33:51;27.57;;;14.87;;
77168;SDS011;66281;45.114;20.730;2022-12-29T09:43:56;20.77;;;12.75;;
77168;SDS011;66281;45.114;20.730;2022-12-29T09:54:05;32.97;;;15.17;;
77168;SDS011;66281;45.114;20.730;2022-12-29T10:04:25;21.40;;;12.20;;
77168;SDS011;66281;45.114;20.730;2022-12-29T10:24:49;21.70;;;12.53;;
77168;SDS011;66281;45.114;20.730;2022-12-29T10:34:51;20.00;;;11.85;;
77168;SDS011;66281;45.114;20.730;2022-12-29T10:44:55;21.73;;;13.73;;
77168;SDS011;66281;45.114;20.730;2022-12-29T10:55:03;18.23;;;13.23;;
77168;SDS011;66281;45.114;20.730;2022-12-29T11:05:27;19.75;;;12.27;;
77168;SDS011;66281;45.114;20.730;2022-12-29T11:15:51;17.43;;;12.70;;
77168;SDS011;66281;45.114;20.730;2022-12-29T11:36:17;20.37;;;13.27;;
77168;SDS011;66281;45.114;20.730;2022-12-29T11:46:26;25.63;;;14.03;;
77168;SDS011;66281;45.114;20.730;2022-12-29T11:56:35;19.53;;;12.20;;
77168;SDS011;66281;45.114;20.730;2022-12-29T12:06:40;36.58;;;19.20;;
77168;SDS011;66281;45.114;20.730;2022-12-29T12:16:50;28.37;;;17.63;;
77168;SDS011;66281;45.114;20.730;2022-12-29T12:27:14;25.37;;;15.50;;
77168;SDS011;66281;45.114;20.730;2022-12-29T12:37:24;32.88;;;20.75;;
77168;SDS011;66281;45.114;20.730;2022-12-29T13:38:29;24.23;;;15.90;;
77168;SDS011;66281;45.114;20.730;2022-12-29T13:48:41;28.17;;;16.98;;
77168;SDS011;66281;45.114;20.730;2022-12-29T14:08:58;43.13;;;25.07;;
77168;SDS011;66281;45.114;20.730;2022-12-29T14:19:04;29.95;;;17.50;;
77168;SDS011;66281;45.114;20.730;2022-12-29T14:39:38;40.17;;;25.57;;
77168;SDS011;66281;45.114;20.730;2022-12-29T14:49:42;54.95;;;27.80;;
77168;SDS011;66281;45.114;20.730;2022-12-29T14:59:43;48.57;;;24.50;;
77168;SDS011;66281;45.114;20.730;2022-12-29T15:09:46;42.53;;;22.70;;
77168;SDS011;66281;45.114;20.730;2022-12-29T15:19:51;36.33;;;20.13;;
77168;SDS011;66281;45.114;20.730;2022-12-29T15:29:59;36.63;;;19.00;;
77168;SDS011;66281;45.114;20.730;2022-12-29T15:40:00;35.25;;;18.75;;
77168;SDS011;66281;45.114;20.730;2022-12-29T16:00:35;33.17;;;18.07;;
77168;SDS011;66281;45.114;20.730;2022-12-29T16:10:36;26.87;;;16.53;;
77168;SDS011;66281;45.114;20.730;2022-12-29T16:20:39;26.10;;;16.70;;
77168;SDS011;66281;45.114;20.730;2022-12-29T16:30:41;46.07;;;19.77;;
77168;SDS011;66281;45.114;20.730;2022-12-29T16:50:51;33.63;;;20.63;;
77168;SDS011;66281;45.114;20.730;2022-12-29T17:00:52;37.57;;;20.80;;
77168;SDS011;66281;45.114;20.730;2022-12-29T17:10:55;34.23;;;20.03;;
77168;SDS011;66281;45.114;20.730;2022-12-29T17:20:56;39.37;;;24.10;;
77168;SDS011;66281;45.114;20.730;2022-12-29T17:31:00;40.13;;;23.02;;
77168;SDS011;66281;45.114;20.730;2022-12-29T17:41:02;42.73;;;25.07;;
77168;SDS011;66281;45.114;20.730;2022-12-29T17:51:03;63.83;;;34.37;;
77168;SDS011;66281;45.114;20.730;2022-12-29T18:01:03;94.15;;;51.15;;
77168;SDS011;66281;45.114;20.730;2022-12-29T18:11:15;63.40;;;31.03;;
77168;SDS011;66281;45.114;20.730;2022-12-29T18:21:21;76.95;;;38.05;;
77168;SDS011;66281;45.114;20.730;2022-12-29T18:31:24;55.47;;;30.83;;
77168;SDS011;66281;45.114;20.730;2022-12-29T18:41:27;43.13;;;25.70;;
77168;SDS011;66281;45.114;20.730;2022-12-29T18:51:28;53.92;;;30.45;;
77168;SDS011;66281;45.114;20.730;2022-12-29T19:01:28;45.37;;;25.27;;
77168;SDS011;66281;45.114;20.730;2022-12-29T19:11:29;44.63;;;23.20;;
77168;SDS011;66281;45.114;20.730;2022-12-29T19:21:29;39.72;;;21.85;;
77168;SDS011;66281;45.114;20.730;2022-12-29T19:31:30;34.05;;;20.13;;
77168;SDS011;66281;45.114;20.730;2022-12-29T19:41:30;33.45;;;18.75;;
77168;SDS011;66281;45.114;20.730;2022-12-29T19:51:31;32.37;;;20.10;;
77168;SDS011;66281;45.114;20.730;2022-12-29T20:01:31;33.92;;;20.77;;
77168;SDS011;66281;45.114;20.730;2022-12-29T20:11:32;34.97;;;20.40;;
77168;SDS011;66281;45.114;20.730;2022-12-29T20:21:32;38.47;;;23.20;;
77168;SDS011;66281;45.114;20.730;2022-12-29T20:31:34;40.58;;;22.60;;
77168;SDS011;66281;45.114;20.730;2022-12-29T20:41:36;40.97;;;23.20;;
77168;SDS011;66281;45.114;20.730;2022-12-29T20:51:36;31.83;;;20.10;;
77168;SDS011;66281;45.114;20.730;2022-12-29T21:01:37;37.55;;;21.20;;
77168;SDS011;66281;45.114;20.730;2022-12-29T21:11:37;40.83;;;21.80;;
77168;SDS011;66281;45.114;20.730;2022-12-29T21:21:38;46.97;;;27.08;;
77168;SDS011;66281;45.114;20.730;2022-12-29T21:31:38;37.83;;;22.10;;
77168;SDS011;66281;45.114;20.730;2022-12-29T21:41:39;35.27;;;20.87;;
77168;SDS011;66281;45.114;20.730;2022-12-29T21:51:39;29.90;;;18.53;;
77168;SDS011;66281;45.114;20.730;2022-12-29T22:01:40;37.20;;;19.80;;
77168;SDS011;66281;45.114;20.730;2022-12-29T22:11:40;34.58;;;19.70;;
77168;SDS011;66281;45.114;20.730;2022-12-29T22:21:40;35.40;;;19.92;;
77168;SDS011;66281;45.114;20.730;2022-12-29T22:31:41;46.90;;;23.10;;
77168;SDS011;66281;45.114;20.730;2022-12-29T22:41:41;38.88;;;21.58;;
77168;SDS011;66281;45.114;20.730;2022-12-29T22:51:42;45.13;;;21.50;;
77168;SDS011;66281;45.114;20.730;2022-12-29T23:01:42;32.83;;;19.38;;
77168;SDS011;66281;45.114;20.730;2022-12-29T23:11:44;30.03;;;17.93;;
77168;SDS011;66281;45.114;20.730;2022-12-29T23:21:44;27.75;;;16.73;;
77168;SDS011;66281;45.114;20.730;2022-12-29T23:31:45;31.83;;;18.40;;
77168;SDS011;66281;45.114;20.730;2022-12-29T23:41:46;35.27;;;20.63;;
77168;SDS011;66281;45.114;20.730;2022-12-29T23:51:47;34.25;;;19.83;;
